createdAt,value
2018-11-12T00:01:17.430Z,22.83
2018-11-12T00:03:43.446Z,22.82
2018-11-12T00:06:09.462Z,22.81
2018-11-12T00:08:35.503Z,22.79
2018-11-12T00:11:01.503Z,22.80
2018-11-12T00:13:27.546Z,22.80
2018-11-12T00:15:53.550Z,22.78
2018-11-12T00:18:19.595Z,22.78
2018-11-12T00:20:45.598Z,22.78
2018-11-12T00:23:11.640Z,22.76
2018-11-12T00:25:37.639Z,22.76
2018-11-12T00:28:03.719Z,22.76
2018-11-12T00:30:29.686Z,22.75
2018-11-12T00:32:55.738Z,22.74
2018-11-12T00:35:21.730Z,22.74
2018-11-12T00:37:47.998Z,22.73
2018-11-12T00:40:13.988Z,22.73
2018-11-12T00:42:40.003Z,22.70
2018-11-12T00:45:06.275Z,22.70
2018-11-12T00:47:32.262Z,22.69
2018-11-12T00:49:58.299Z,22.70
2018-11-12T00:52:24.315Z,22.69
2018-11-12T00:54:50.341Z,22.68
2018-11-12T00:57:16.354Z,22.68
2018-11-12T00:59:42.557Z,22.65
2018-11-12T01:02:08.503Z,22.66
2018-11-12T01:04:34.554Z,22.65
2018-11-12T01:07:00.894Z,22.64
2018-11-12T01:09:26.897Z,22.65
2018-11-12T01:11:52.898Z,22.63
2018-11-12T01:14:18.950Z,22.63
2018-11-12T01:16:44.942Z,22.62
2018-11-12T01:19:10.975Z,22.61
2018-11-12T01:21:37.006Z,22.62
2018-11-12T01:24:03.334Z,22.61
2018-11-12T01:26:29.366Z,22.61
2018-11-12T01:28:55.359Z,22.59
2018-11-12T01:31:21.406Z,22.60
2018-11-12T01:33:47.411Z,22.57
2018-11-12T01:36:13.455Z,22.58
2018-11-12T01:38:39.464Z,22.58
2018-11-12T01:41:05.504Z,22.56
2018-11-12T01:43:31.506Z,22.56
2018-11-12T01:45:57.546Z,22.55
2018-11-12T01:48:23.553Z,22.53
2018-11-12T01:50:49.595Z,22.51
2018-11-12T01:53:15.594Z,22.51
2018-11-12T01:55:41.690Z,22.51
2018-11-12T01:58:07.639Z,22.50
2018-11-12T02:00:33.665Z,22.48
2018-11-12T02:02:59.710Z,22.46
2018-11-12T02:05:25.706Z,22.48
2018-11-12T02:07:51.758Z,22.46
2018-11-12T02:10:17.750Z,22.47
2018-11-12T02:12:43.802Z,22.36
2018-11-12T02:15:10.330Z,22.44
2018-11-12T02:17:36.355Z,22.45
2018-11-12T02:20:02.688Z,22.43
2018-11-12T02:22:28.755Z,22.42
2018-11-12T02:24:54.714Z,22.41
2018-11-12T02:27:20.766Z,22.41
2018-11-12T02:29:46.762Z,22.41
2018-11-12T02:32:12.798Z,22.39
2018-11-12T02:34:38.809Z,22.40
2018-11-12T02:37:04.863Z,22.37
2018-11-12T02:39:30.851Z,22.38
2018-11-12T02:41:56.870Z,22.37
2018-11-12T02:44:22.917Z,22.38
2018-11-12T02:46:48.921Z,22.36
2018-11-12T02:49:14.995Z,22.36
2018-11-12T02:51:40.974Z,22.36
2018-11-12T02:54:07.005Z,22.34
2018-11-12T02:56:33.014Z,22.33
2018-11-12T02:59:04.402Z,22.26
2018-11-12T03:01:30.386Z,22.34
2018-11-12T03:03:56.430Z,22.31
2018-11-12T03:06:22.430Z,22.30
2018-11-12T03:08:48.472Z,22.29
2018-11-12T03:11:14.483Z,22.30
2018-11-12T03:13:40.522Z,22.29
2018-11-12T03:16:06.514Z,22.29
2018-11-12T03:18:32.546Z,22.28
2018-11-12T03:20:58.591Z,22.27
2018-11-12T03:23:24.593Z,22.27
2018-11-12T03:25:50.651Z,22.25
2018-11-12T03:28:16.645Z,22.26
2018-11-12T03:30:42.703Z,22.26
2018-11-12T03:33:08.678Z,22.26
2018-11-12T03:35:34.731Z,22.25
2018-11-12T03:38:00.730Z,22.26
2018-11-12T03:40:26.775Z,22.24
2018-11-12T03:42:52.782Z,22.24
2018-11-12T03:45:18.846Z,22.25
2018-11-12T03:47:44.830Z,22.23
2018-11-12T03:50:11.291Z,22.23
2018-11-12T03:52:37.275Z,22.22
2018-11-12T03:55:03.567Z,22.22
2018-11-12T03:57:29.530Z,22.21
2018-11-12T03:59:55.550Z,22.21
2018-11-12T04:02:21.601Z,22.20
2018-11-12T04:04:47.594Z,22.20
2018-11-12T04:07:13.642Z,22.19
2018-11-12T04:09:39.638Z,22.18
2018-11-12T04:12:05.711Z,22.17
2018-11-12T04:14:31.693Z,22.18
2018-11-12T04:16:57.733Z,22.17
2018-11-12T04:19:23.739Z,22.17
2018-11-12T04:21:49.778Z,22.17
2018-11-12T04:24:15.788Z,22.16
2018-11-12T04:26:41.826Z,22.15
2018-11-12T04:29:07.826Z,22.15
2018-11-12T04:31:33.875Z,22.15
2018-11-12T04:33:59.870Z,22.15
2018-11-12T04:36:25.918Z,22.14
2018-11-12T04:38:51.923Z,22.14
2018-11-12T04:41:17.947Z,22.12
2018-11-12T04:43:44.002Z,22.11
2018-11-12T04:46:09.986Z,22.12
2018-11-12T04:48:36.027Z,22.12
2018-11-12T04:51:02.035Z,21.69
2018-11-12T04:53:28.076Z,22.09
2018-11-12T04:55:54.082Z,22.11
2018-11-12T04:58:20.132Z,22.08
2018-11-12T05:00:46.131Z,22.11
2018-11-12T05:03:12.171Z,22.08
2018-11-12T05:05:38.170Z,22.09
2018-11-12T05:08:04.238Z,22.09
2018-11-12T05:10:30.218Z,22.09
2018-11-12T05:12:56.270Z,22.08
2018-11-12T05:15:22.266Z,22.08
2018-11-12T05:17:48.361Z,22.07
2018-11-12T05:20:14.630Z,22.08
2018-11-12T05:22:40.642Z,22.09
2018-11-12T05:25:06.690Z,22.07
2018-11-12T05:27:32.691Z,22.08
2018-11-12T05:29:58.734Z,22.07
2018-11-12T05:32:24.731Z,22.07
2018-11-12T05:34:50.784Z,22.06
2018-11-12T05:37:16.783Z,22.06
2018-11-12T05:39:42.823Z,22.03
2018-11-12T05:42:08.830Z,22.05
2018-11-12T05:44:34.872Z,22.04
2018-11-12T05:47:00.867Z,22.04
2018-11-12T05:49:26.922Z,22.04
2018-11-12T05:51:52.914Z,22.04
2018-11-12T05:54:18.941Z,22.04
2018-11-12T05:56:44.983Z,22.02
2018-11-12T05:59:11.034Z,22.03
2018-11-12T06:01:37.034Z,22.01
2018-11-12T06:04:03.362Z,22.02
2018-11-12T06:06:29.385Z,22.02
2018-11-12T06:08:55.384Z,22.02
2018-11-12T06:11:21.437Z,22.01
2018-11-12T06:13:47.438Z,22.01
2018-11-12T06:16:13.478Z,22.01
2018-11-12T06:18:39.469Z,22.01
2018-11-12T06:21:05.522Z,21.99
2018-11-12T06:23:31.526Z,22.00
2018-11-12T06:25:57.571Z,21.96
2018-11-12T06:28:23.570Z,21.97
2018-11-12T06:30:49.614Z,21.96
2018-11-12T06:33:15.613Z,21.98
2018-11-12T06:35:41.662Z,21.98
2018-11-12T06:38:07.659Z,21.97
2018-11-12T06:40:33.722Z,21.95
2018-11-12T06:42:59.721Z,21.97
2018-11-12T06:45:25.734Z,21.96
2018-11-12T06:47:51.774Z,21.94
2018-11-12T06:50:17.790Z,21.95
2018-11-12T06:52:43.878Z,21.95
2018-11-12T06:55:09.826Z,21.93
2018-11-12T06:57:35.866Z,21.93
2018-11-12T07:00:01.871Z,21.95
2018-11-12T07:02:27.915Z,21.94
2018-11-12T07:04:53.914Z,21.94
2018-11-12T07:07:19.958Z,21.94
2018-11-12T07:09:45.967Z,21.94
2018-11-12T07:12:12.014Z,21.94
2018-11-12T07:14:38.014Z,21.93
2018-11-12T07:17:04.351Z,21.93
2018-11-12T07:19:30.383Z,21.91
2018-11-12T07:21:56.374Z,21.92
2018-11-12T07:24:22.331Z,21.93
2018-11-12T07:26:48.321Z,21.91
2018-11-12T07:29:14.370Z,21.83
2018-11-12T07:31:40.367Z,21.90
2018-11-12T07:34:06.422Z,21.91
2018-11-12T07:36:32.419Z,21.90
2018-11-12T07:38:58.462Z,21.90
2018-11-12T07:41:24.466Z,21.91
2018-11-12T07:43:50.510Z,21.91
2018-11-12T07:46:16.506Z,21.89
2018-11-12T07:48:42.583Z,21.89
2018-11-12T07:51:08.573Z,21.88
2018-11-12T07:53:34.579Z,21.88
2018-11-12T07:56:00.695Z,21.87
2018-11-12T07:58:26.627Z,21.89
2018-11-12T08:00:52.671Z,21.88
2018-11-12T08:03:18.779Z,21.88
2018-11-12T08:05:44.719Z,21.88
2018-11-12T08:08:10.723Z,21.88
2018-11-12T08:10:36.773Z,21.88
2018-11-12T08:13:02.767Z,21.88
2018-11-12T08:15:28.810Z,21.86
2018-11-12T08:17:54.850Z,21.88
2018-11-12T08:20:20.842Z,21.87
2018-11-12T08:22:46.854Z,21.88
2018-11-12T08:25:12.898Z,21.86
2018-11-12T08:27:38.903Z,21.87
2018-11-12T08:30:06.665Z,21.87
2018-11-12T08:32:32.483Z,21.86
2018-11-12T08:34:58.506Z,21.87
2018-11-12T08:37:24.562Z,21.86
2018-11-12T08:39:50.661Z,21.87
2018-11-12T08:42:16.602Z,21.85
2018-11-12T08:44:42.599Z,21.85
2018-11-12T08:47:08.651Z,21.85
2018-11-12T08:49:34.727Z,21.85
2018-11-12T08:52:00.727Z,21.86
2018-11-12T08:54:26.710Z,21.85
2018-11-12T08:56:52.735Z,21.83
2018-11-12T08:59:18.833Z,21.85
2018-11-12T09:01:44.774Z,21.83
2018-11-12T09:04:10.892Z,21.85
2018-11-12T09:06:36.836Z,21.84
2018-11-12T09:09:04.483Z,21.83
2018-11-12T09:11:30.495Z,21.82
2018-11-12T09:13:56.531Z,21.81
2018-11-12T09:16:22.531Z,21.82
2018-11-12T09:18:48.582Z,21.82
2018-11-12T09:21:14.594Z,21.82
2018-11-12T09:23:40.627Z,21.82
2018-11-12T09:26:06.626Z,21.81
2018-11-12T09:28:32.670Z,21.81
2018-11-12T09:30:59.875Z,21.81
2018-11-12T09:33:24.718Z,21.80
2018-11-12T09:35:50.718Z,21.81
2018-11-12T09:38:16.791Z,21.81
2018-11-12T09:40:42.771Z,21.81
2018-11-12T09:43:08.860Z,21.80
2018-11-12T09:45:34.810Z,21.81
2018-11-12T09:48:01.004Z,21.82
2018-11-12T09:50:26.864Z,21.81
2018-11-12T09:52:52.886Z,21.82
2018-11-12T09:55:18.918Z,21.80
2018-11-12T09:57:44.933Z,21.80
2018-11-12T10:00:11.498Z,21.81
2018-11-12T10:02:37.908Z,21.81
2018-11-12T10:05:05.260Z,21.80
2018-11-12T10:07:31.709Z,21.79
2018-11-12T10:09:57.867Z,21.79
2018-11-12T10:12:23.618Z,21.79
2018-11-12T10:14:50.078Z,21.77
2018-11-12T10:17:16.763Z,21.78
2018-11-12T10:19:39.830Z,21.79
2018-11-12T10:22:05.774Z,21.79
2018-11-12T10:24:31.810Z,21.78
2018-11-12T10:26:57.814Z,21.80
2018-11-12T10:29:23.862Z,21.80
2018-11-12T10:31:49.866Z,21.79
2018-11-12T10:34:15.936Z,21.77
2018-11-12T10:36:41.918Z,21.78
2018-11-12T10:39:07.931Z,21.78
2018-11-12T10:41:33.974Z,21.77
2018-11-12T10:43:59.982Z,21.75
2018-11-12T10:46:25.950Z,21.78
2018-11-12T10:48:51.923Z,21.77
2018-11-12T10:51:18.032Z,21.78
2018-11-12T10:53:50.043Z,21.77
2018-11-12T10:56:10.121Z,21.74
2018-11-12T10:58:36.125Z,21.75
2018-11-12T11:01:02.058Z,21.77
2018-11-12T11:03:28.062Z,21.76
2018-11-12T11:05:54.106Z,21.74
2018-11-12T11:08:20.179Z,21.75
2018-11-12T11:10:46.126Z,21.74
2018-11-12T11:13:12.181Z,21.74
2018-11-12T11:15:38.245Z,21.74
2018-11-12T11:18:04.563Z,21.74
2018-11-12T11:20:30.549Z,21.74
2018-11-12T11:22:56.574Z,21.73
2018-11-12T11:25:22.574Z,21.73
2018-11-12T11:27:48.622Z,21.72
2018-11-12T11:30:14.622Z,21.72
2018-11-12T11:32:40.667Z,21.72
2018-11-12T11:35:06.986Z,21.71
2018-11-12T11:37:33.026Z,21.72
2018-11-12T11:39:59.022Z,21.71
2018-11-12T11:42:25.039Z,21.72
2018-11-12T11:44:51.106Z,21.73
2018-11-12T11:47:17.153Z,21.71
2018-11-12T11:49:43.131Z,21.70
2018-11-12T11:52:09.135Z,21.71
2018-11-12T11:54:35.178Z,21.70
2018-11-12T11:57:01.244Z,21.71
2018-11-12T11:59:27.226Z,21.69
2018-11-12T12:01:53.227Z,21.70
2018-11-12T12:04:19.270Z,21.70
2018-11-12T12:06:45.271Z,21.71
2018-11-12T12:09:11.367Z,21.70
2018-11-12T12:11:37.314Z,21.70
2018-11-12T12:14:03.370Z,21.70
2018-11-12T12:16:29.368Z,21.69
2018-11-12T12:18:55.418Z,21.66
2018-11-12T12:21:21.431Z,21.68
2018-11-12T12:23:47.426Z,21.69
2018-11-12T12:26:13.478Z,21.68
2018-11-12T12:28:39.474Z,21.69
2018-11-12T12:31:05.527Z,21.68
2018-11-12T12:33:31.534Z,21.69
2018-11-12T12:35:57.648Z,21.68
2018-11-12T12:38:23.579Z,21.68
2018-11-12T12:40:49.614Z,21.68
2018-11-12T12:43:15.615Z,21.68
2018-11-12T12:45:41.759Z,21.67
2018-11-12T12:48:07.669Z,21.67
2018-11-12T12:50:33.710Z,21.65
2018-11-12T12:52:59.706Z,21.66
2018-11-12T12:55:25.812Z,21.65
2018-11-12T12:57:51.752Z,21.66
2018-11-12T13:00:17.781Z,21.64
2018-11-12T13:02:43.818Z,21.64
2018-11-12T13:05:09.841Z,21.66
2018-11-12T13:07:35.863Z,21.65
2018-11-12T13:10:01.870Z,21.66
2018-11-12T13:12:27.914Z,21.65
2018-11-12T13:14:54.033Z,21.65
2018-11-12T13:17:19.966Z,21.63
2018-11-12T13:19:45.981Z,21.64
2018-11-12T13:22:12.007Z,21.64
2018-11-12T13:24:38.003Z,21.63
2018-11-12T13:27:04.174Z,21.62
2018-11-12T13:29:30.156Z,21.63
2018-11-12T13:31:56.198Z,21.63
2018-11-12T13:34:22.203Z,21.64
2018-11-12T13:36:48.231Z,21.63
2018-11-12T13:39:14.322Z,21.62
2018-11-12T13:41:40.274Z,21.63
2018-11-12T13:44:06.322Z,21.62
2018-11-12T13:46:32.424Z,21.61
2018-11-12T13:48:58.362Z,21.61
2018-11-12T13:51:24.362Z,21.60
2018-11-12T13:53:50.410Z,21.60
2018-11-12T13:56:16.410Z,21.62
2018-11-12T13:58:42.454Z,21.61
2018-11-12T14:01:08.463Z,21.60
2018-11-12T14:03:34.515Z,21.60
2018-11-12T14:06:00.602Z,21.61
2018-11-12T14:08:26.651Z,21.61
2018-11-12T14:10:52.646Z,21.61
2018-11-12T14:13:18.698Z,21.60
2018-11-12T14:15:44.701Z,21.60
2018-11-12T14:18:10.742Z,21.58
2018-11-12T14:20:36.852Z,21.59
2018-11-12T14:23:02.787Z,21.59
2018-11-12T14:25:28.788Z,21.59
2018-11-12T14:27:54.933Z,21.58
2018-11-12T14:30:20.842Z,21.59
2018-11-12T14:32:46.863Z,21.57
2018-11-12T14:35:12.919Z,21.56
2018-11-12T14:37:38.926Z,21.57
2018-11-12T14:40:05.574Z,21.58
2018-11-12T14:42:31.562Z,21.58
2018-11-12T14:44:57.628Z,21.55
2018-11-12T14:47:23.615Z,21.57
2018-11-12T14:49:49.658Z,21.55
2018-11-12T14:52:15.651Z,21.57
2018-11-12T14:54:41.683Z,21.55
2018-11-12T14:57:07.719Z,21.56
2018-11-12T14:59:33.731Z,21.47
2018-11-12T15:01:59.779Z,21.54
2018-11-12T15:04:25.774Z,21.53
2018-11-12T15:06:51.818Z,21.53
2018-11-12T15:09:17.818Z,21.55
2018-11-12T15:11:43.900Z,21.53
2018-11-12T15:14:09.874Z,21.53
2018-11-12T15:16:35.919Z,21.52
2018-11-12T15:19:01.907Z,21.52
2018-11-12T15:21:27.951Z,21.51
2018-11-12T15:23:53.956Z,21.52
2018-11-12T15:26:19.998Z,21.49
2018-11-12T15:28:46.002Z,21.51
2018-11-12T15:31:12.031Z,21.51
2018-11-12T15:33:38.070Z,21.52
2018-11-12T15:36:04.186Z,21.52
2018-11-12T15:38:30.214Z,21.51
2018-11-12T15:40:56.214Z,21.50
2018-11-12T15:43:22.335Z,21.50
2018-11-12T15:45:48.262Z,21.51
2018-11-12T15:48:15.123Z,21.50
2018-11-12T15:50:41.143Z,21.49
2018-11-12T15:53:07.179Z,21.49
2018-11-12T15:55:33.184Z,21.49
2018-11-12T15:57:59.264Z,21.50
2018-11-12T16:00:25.218Z,21.48
2018-11-12T16:02:51.272Z,21.48
2018-11-12T16:05:17.202Z,21.48
2018-11-12T16:07:43.202Z,21.48
2018-11-12T16:10:09.938Z,21.49
2018-11-12T16:12:35.951Z,21.48
2018-11-12T16:15:01.998Z,21.48
2018-11-12T16:17:27.998Z,21.48
2018-11-12T16:19:54.043Z,21.47
2018-11-12T16:22:20.047Z,21.48
2018-11-12T16:24:46.087Z,21.47
2018-11-12T16:27:12.083Z,21.48
2018-11-12T16:29:38.134Z,21.48
2018-11-12T16:32:04.135Z,21.48
2018-11-12T16:34:30.178Z,21.48
2018-11-12T16:36:56.179Z,21.47
2018-11-12T16:39:22.227Z,21.48
2018-11-12T16:41:48.222Z,21.47
2018-11-12T16:44:14.278Z,21.46
2018-11-12T16:46:40.271Z,21.47
2018-11-12T16:49:06.303Z,21.47
2018-11-12T16:51:32.342Z,21.47
2018-11-12T16:53:58.342Z,21.45
2018-11-12T16:56:24.386Z,21.44
2018-11-12T16:58:50.390Z,21.45
2018-11-12T17:01:16.459Z,21.43
2018-11-12T17:03:42.442Z,21.45
2018-11-12T17:06:08.478Z,21.45
2018-11-12T17:08:34.471Z,21.45
2018-11-12T17:11:00.522Z,21.46
2018-11-12T17:13:26.522Z,21.45
2018-11-12T17:15:52.570Z,21.45
2018-11-12T17:18:18.562Z,21.44
2018-11-12T17:20:44.515Z,21.46
2018-11-12T17:23:10.619Z,21.45
2018-11-12T17:25:36.566Z,21.45
2018-11-12T17:28:02.566Z,21.44
2018-11-12T17:30:28.610Z,21.44
2018-11-12T17:32:54.602Z,21.45
2018-11-12T17:35:20.650Z,21.45
2018-11-12T17:37:46.650Z,21.44
2018-11-12T17:40:13.514Z,21.44
2018-11-12T17:42:39.547Z,21.44
2018-11-12T17:45:07.634Z,21.45
2018-11-12T17:47:33.637Z,21.44
2018-11-12T17:49:59.642Z,21.44
2018-11-12T17:52:25.694Z,21.43
2018-11-12T17:54:51.686Z,21.43
2018-11-12T17:57:17.734Z,21.41
2018-11-12T17:59:43.735Z,21.43
2018-11-12T18:02:09.774Z,21.42
2018-11-12T18:04:35.787Z,21.43
2018-11-12T18:07:01.868Z,21.43
2018-11-12T18:09:27.887Z,21.43
2018-11-12T18:11:53.870Z,21.43
2018-11-12T18:14:19.875Z,21.42
2018-11-12T18:16:45.896Z,21.42
2018-11-12T18:19:11.943Z,21.43
2018-11-12T18:21:37.954Z,21.41
2018-11-12T18:24:04.310Z,21.42
2018-11-12T18:26:30.295Z,21.42
2018-11-12T18:28:56.337Z,21.42
2018-11-12T18:31:22.361Z,21.41
2018-11-12T18:33:48.388Z,21.44
2018-11-12T18:36:14.383Z,21.50
2018-11-12T18:38:40.430Z,21.53
2018-11-12T18:43:45.033Z,21.71
